Ana Sayfa
METAR-TAF:

METAR-TAF

Havaalanları :

El Dorado, Kansas, Amerika Birleşik Devletleri

Enlem: 37-46-27N, Boylam: 096-49-03W, yükseklik: 420 m

Güncel hava durumu gözlemi

Rapor saat 05:15 UTC de 18 dakika önce yapıldı.
Rüzgar güneydan 18 kt ve 25 kt'a kadar ani rüzgarlar
Sıcaklık 23°C
Nem 65%
Basınç 1009 hPa
Görüş mesafesi: 16.1 km
Açık gökyüzü

METAR: KEQA 180515Z AUTO 17018G25KT 10SM CLR 23/16 A2980 RMK AO2

Saat: 00:33 (05:33 UTC)


TAF: eksik

4.000'den fazla havaalanı için hava durumu gözlemleri ve tahminleri (METAR ve TAF raporları).

Kullanılabilir istasyonlar harita üzerinde sarı ve kırmızı noktalarla gösterilir.

İstasyonun adını görmek için fareyi noktanın üzerinde gezdirin.

Sonrasında hava gözlem ve tahminlerini görmek için tıklayın.

Haritayı değiştirmek için: yaklaştırmak için siyah artı işaretli yeşil düğmeye ve uzaklaştırmak için de eksi işaretli düğmeye hızla tıklayın; bitişik haritalar için yeşil okları kullanın.


METAR-TAF: